createdAt,value
2023-03-06T00:00:02.030Z,96271.16
2023-03-06T00:02:28.584Z,96275.78
2023-03-06T00:04:55.197Z,96252.91
2023-03-06T00:07:21.834Z,96221.50
2023-03-06T00:09:48.453Z,96270.63
2023-03-06T00:12:15.109Z,96277.78
2023-03-06T00:14:41.681Z,96283.16
2023-03-06T00:17:08.212Z,96242.22
2023-03-06T00:19:34.805Z,96272.88
2023-03-06T00:22:03.288Z,96273.56
2023-03-06T00:24:29.837Z,96261.25
2023-03-06T00:26:56.504Z,96285.66
2023-03-06T00:29:23.100Z,96288.19
2023-03-06T00:31:49.715Z,96259.81
2023-03-06T00:34:16.320Z,96287.03
2023-03-06T00:36:42.976Z,96260.34
2023-03-06T00:39:09.683Z,96286.81
2023-03-06T00:41:36.349Z,96225.13
2023-03-06T00:44:02.913Z,96274.06
2023-03-06T00:46:29.523Z,96272.22
2023-03-06T00:48:56.145Z,96269.16
2023-03-06T00:51:22.874Z,96174.41
2023-03-06T00:53:49.563Z,96275.38
2023-03-06T00:56:17.905Z,96272.66
2023-03-06T00:58:45.919Z,96282.00
2023-03-06T01:01:12.649Z,96249.41
2023-03-06T01:03:39.259Z,96275.38
2023-03-06T01:06:06.081Z,96263.44
2023-03-06T01:08:32.655Z,96262.88
2023-03-06T01:10:59.362Z,96286.25
2023-03-06T01:13:25.927Z,96294.09
2023-03-06T01:15:52.840Z,96222.75
2023-03-06T01:18:19.482Z,96287.00
2023-03-06T01:20:46.054Z,96301.59
2023-03-06T01:23:12.612Z,96289.31
2023-03-06T01:25:39.155Z,96298.06
2023-03-06T01:28:05.800Z,96291.00
2023-03-06T01:30:32.338Z,96242.31
2023-03-06T01:32:59.311Z,96277.66
2023-03-06T01:35:25.950Z,96294.53
2023-03-06T01:37:52.547Z,96302.97
2023-03-06T01:40:19.220Z,96292.22
2023-03-06T01:42:49.283Z,96292.13
2023-03-06T01:45:15.817Z,96294.41
2023-03-06T01:47:42.522Z,96289.72
2023-03-06T01:50:11.680Z,96248.03
2023-03-06T01:52:50.202Z,96183.28
2023-03-06T01:55:24.960Z,96256.13
2023-03-06T01:57:57.838Z,96239.38
2023-03-06T02:00:26.964Z,96271.06
2023-03-06T02:02:56.992Z,96257.38
2023-03-06T02:05:24.160Z,96249.63
2023-03-06T02:07:51.968Z,95817.91
2023-03-06T02:10:19.985Z,96299.13
2023-03-06T02:12:49.235Z,96262.53
2023-03-06T02:15:18.512Z,96301.97
2023-03-06T02:17:46.864Z,96247.34
2023-03-06T02:20:34.455Z,96331.81
2023-03-06T02:23:03.783Z,96308.91
2023-03-06T02:25:36.522Z,96304.34
2023-03-06T02:28:04.730Z,96315.19
2023-03-06T02:30:32.120Z,96293.66
2023-03-06T02:32:58.860Z,96319.34
2023-03-06T02:35:28.143Z,96322.03
2023-03-06T02:37:57.291Z,96316.91
2023-03-06T02:40:24.125Z,96287.25
2023-03-06T02:42:56.293Z,96331.59
2023-03-06T02:45:34.359Z,96309.03
2023-03-06T02:48:00.963Z,96331.47
2023-03-06T02:50:27.600Z,96330.41
2023-03-06T02:52:54.404Z,96325.88
2023-03-06T02:55:21.029Z,96324.66
2023-03-06T02:57:47.676Z,96268.84
2023-03-06T03:00:15.344Z,96322.94
2023-03-06T03:02:42.282Z,96308.91
2023-03-06T03:05:09.059Z,96296.56
2023-03-06T03:07:36.029Z,96346.13
2023-03-06T03:10:03.513Z,96311.50
2023-03-06T03:12:30.155Z,96337.34
2023-03-06T03:14:56.829Z,96344.13
2023-03-06T03:17:24.445Z,96354.94
2023-03-06T03:19:51.094Z,96348.25
2023-03-06T03:22:17.801Z,96361.97
2023-03-06T03:24:44.577Z,96353.25
2023-03-06T03:27:11.168Z,96291.66
2023-03-06T03:29:37.804Z,96343.84
2023-03-06T03:32:04.938Z,96359.03
2023-03-06T03:34:31.747Z,96355.16
2023-03-06T03:36:58.316Z,96361.69
2023-03-06T03:39:25.068Z,96368.47
2023-03-06T03:41:51.717Z,96288.38
2023-03-06T03:44:18.322Z,96325.22
2023-03-06T03:46:44.941Z,96374.22
2023-03-06T03:49:11.669Z,96423.06
2023-03-06T03:51:38.297Z,96376.75
2023-03-06T03:54:06.591Z,96383.28
2023-03-06T03:56:34.096Z,96359.75
2023-03-06T03:59:01.025Z,96321.16
2023-03-06T04:01:27.842Z,96384.31
2023-03-06T04:03:54.612Z,96321.13
2023-03-06T04:06:21.162Z,96376.28
2023-03-06T04:08:47.927Z,96375.81
2023-03-06T04:11:15.160Z,96380.03
2023-03-06T04:13:41.735Z,96373.56
2023-03-06T04:16:08.358Z,96386.75
2023-03-06T04:18:34.986Z,96379.94
2023-03-06T04:21:01.581Z,96294.91
2023-03-06T04:23:28.458Z,96391.28
2023-03-06T04:25:55.177Z,96352.59
2023-03-06T04:28:21.816Z,96395.41
2023-03-06T04:30:48.433Z,96323.41
2023-03-06T04:33:15.094Z,96411.66
2023-03-06T04:35:41.688Z,96398.63
2023-03-06T04:38:08.394Z,96377.31
2023-03-06T04:40:36.700Z,96342.31
2023-03-06T04:43:04.470Z,96411.66
2023-03-06T04:45:32.675Z,96344.78
2023-03-06T04:47:59.614Z,96395.97
2023-03-06T04:50:33.810Z,96419.50
2023-03-06T04:53:01.491Z,96435.88
2023-03-06T04:55:28.592Z,96421.84
2023-03-06T04:57:55.344Z,96383.81
2023-03-06T05:00:24.420Z,96422.94
2023-03-06T05:02:51.774Z,96423.06
2023-03-06T05:05:19.122Z,96404.25
2023-03-06T05:07:46.130Z,96366.97
2023-03-06T05:10:15.548Z,96441.44
2023-03-06T05:12:42.900Z,96384.81
2023-03-06T05:15:11.296Z,96451.84
2023-03-06T05:17:38.419Z,96459.03
2023-03-06T05:20:07.080Z,96456.13
2023-03-06T05:22:34.673Z,96464.41
2023-03-06T05:25:01.285Z,96431.06
2023-03-06T05:27:28.662Z,96459.31
2023-03-06T05:29:55.432Z,96463.84
2023-03-06T05:32:22.510Z,96445.72
2023-03-06T05:34:49.681Z,96467.19
2023-03-06T05:37:16.299Z,96467.44
2023-03-06T05:39:43.070Z,96438.06
2023-03-06T05:42:09.641Z,96473.16
2023-03-06T05:44:36.723Z,96485.56
2023-03-06T05:47:03.369Z,96479.97
2023-03-06T05:49:36.792Z,96456.09
2023-03-06T05:52:04.782Z,96487.06
2023-03-06T05:54:32.964Z,96410.22
2023-03-06T05:56:59.785Z,96490.88
2023-03-06T05:59:28.576Z,96495.25
2023-03-06T06:01:56.177Z,96443.13
2023-03-06T06:04:24.752Z,96506.81
2023-03-06T06:06:53.875Z,96442.66
2023-03-06T06:09:22.429Z,96500.03
2023-03-06T06:12:02.610Z,96501.53
2023-03-06T06:14:30.117Z,96385.59
2023-03-06T06:16:56.895Z,96446.53
2023-03-06T06:19:23.537Z,96500.41
2023-03-06T06:21:52.404Z,96346.34
2023-03-06T06:24:21.791Z,96520.69
2023-03-06T06:26:53.906Z,96522.03
2023-03-06T06:29:22.045Z,96522.75
2023-03-06T06:31:48.743Z,96527.25
2023-03-06T06:34:15.419Z,96521.91
2023-03-06T06:36:42.162Z,96518.72
2023-03-06T06:39:09.284Z,96522.38
2023-03-06T06:41:54.978Z,96512.97
2023-03-06T06:44:22.824Z,96527.63
2023-03-06T06:47:21.386Z,96518.34
2023-03-06T06:49:37.463Z,96510.44
2023-03-06T06:52:05.613Z,96532.47
2023-03-06T06:54:34.024Z,96539.38
2023-03-06T06:57:00.587Z,96549.75
2023-03-06T06:59:27.249Z,96543.06
2023-03-06T07:01:53.968Z,96527.28
2023-03-06T07:04:20.600Z,96545.81
2023-03-06T07:06:47.334Z,96407.78
2023-03-06T07:09:14.366Z,96489.59
2023-03-06T07:11:41.657Z,96466.00
2023-03-06T07:14:08.361Z,96409.09
2023-03-06T07:16:35.139Z,96546.19
2023-03-06T07:19:01.977Z,96496.72
2023-03-06T07:21:28.783Z,96554.06
2023-03-06T07:23:57.455Z,96411.88
2023-03-06T07:26:28.048Z,96548.03
2023-03-06T07:28:55.070Z,96410.78
2023-03-06T07:31:24.883Z,96549.22
2023-03-06T07:33:53.221Z,96546.59
2023-03-06T07:36:20.628Z,96570.50
2023-03-06T07:38:47.240Z,96496.72
2023-03-06T07:41:16.523Z,96546.09
2023-03-06T07:43:44.579Z,96535.00
2023-03-06T07:46:12.918Z,96552.47
2023-03-06T07:48:40.178Z,96480.41
2023-03-06T07:51:12.414Z,96516.72
2023-03-06T07:53:39.802Z,96502.19
2023-03-06T07:56:09.005Z,96470.47
2023-03-06T07:58:38.132Z,96517.38
2023-03-06T08:01:06.174Z,96554.28
2023-03-06T08:03:33.365Z,96552.72
2023-03-06T08:06:10.144Z,96552.91
2023-03-06T08:08:39.455Z,96559.56
2023-03-06T08:11:07.213Z,96485.78
2023-03-06T08:13:34.730Z,96561.72
2023-03-06T08:16:01.459Z,96552.16
2023-03-06T08:18:28.946Z,96524.22
2023-03-06T08:21:07.188Z,96558.44
2023-03-06T08:23:35.146Z,96553.59
2023-03-06T08:26:05.163Z,96528.88
2023-03-06T08:28:32.628Z,96568.84
2023-03-06T08:31:07.201Z,96637.72
2023-03-06T08:33:33.845Z,96511.94
2023-03-06T08:36:02.080Z,96403.97
2023-03-06T08:38:30.182Z,96564.75
2023-03-06T08:40:56.898Z,96520.06
2023-03-06T08:43:23.483Z,96540.84
2023-03-06T08:45:57.983Z,96568.88
2023-03-06T08:48:25.244Z,96501.34
2023-03-06T08:50:52.442Z,96554.56
2023-03-06T08:53:19.464Z,96553.69
2023-03-06T08:55:46.534Z,96517.81
2023-03-06T08:58:13.511Z,96509.31
2023-03-06T09:00:40.299Z,96465.44
2023-03-06T09:03:06.964Z,96542.72
2023-03-06T09:05:33.908Z,96551.25
2023-03-06T09:08:00.533Z,96446.03
2023-03-06T09:10:27.781Z,96541.44
2023-03-06T09:12:55.412Z,96414.19
2023-03-06T09:15:23.255Z,96491.03
2023-03-06T09:17:50.871Z,96532.66
2023-03-06T09:20:18.101Z,96442.84
2023-03-06T09:22:45.708Z,96528.00
2023-03-06T09:25:21.850Z,96485.63
2023-03-06T09:27:58.308Z,96514.78
2023-03-06T09:30:31.981Z,96514.75
2023-03-06T09:32:58.557Z,96489.38
2023-03-06T09:35:25.142Z,96516.25
2023-03-06T09:37:51.775Z,96202.19
2023-03-06T09:40:47.059Z,96519.03
2023-03-06T09:43:23.802Z,96517.03
2023-03-06T09:45:50.383Z,96522.78
2023-03-06T09:48:20.100Z,96517.84
2023-03-06T09:50:54.439Z,96513.94
2023-03-06T09:53:45.187Z,96523.47
2023-03-06T09:56:23.496Z,96522.34
2023-03-06T09:58:55.953Z,96494.19
2023-03-06T10:01:36.608Z,96368.81
2023-03-06T10:04:32.324Z,96507.66
2023-03-06T10:07:04.658Z,96444.94
2023-03-06T10:09:43.168Z,96509.28
2023-03-06T10:12:41.104Z,96507.69
2023-03-06T10:15:23.700Z,96408.75
2023-03-06T10:17:50.366Z,96515.59
2023-03-06T10:20:18.717Z,96506.88
2023-03-06T10:23:01.274Z,96496.19
2023-03-06T10:25:37.706Z,96496.53
2023-03-06T10:28:17.722Z,96420.38
2023-03-06T10:30:52.881Z,95666.50
2023-03-06T10:33:38.203Z,96466.19
2023-03-06T10:36:05.171Z,96440.72
2023-03-06T10:38:31.778Z,96458.81
2023-03-06T10:41:18.589Z,96461.50
2023-03-06T10:44:05.251Z,96419.72
2023-03-06T10:46:31.996Z,96455.72
2023-03-06T10:49:24.728Z,96455.97
2023-03-06T10:52:05.738Z,96439.75
2023-03-06T10:54:36.013Z,96427.00
2023-03-06T10:57:25.898Z,96447.13
2023-03-06T10:59:58.644Z,96415.69
2023-03-06T11:02:32.870Z,96430.69
2023-03-06T11:05:01.370Z,96329.97
2023-03-06T11:07:33.254Z,96294.59
2023-03-06T11:10:04.967Z,96425.09
2023-03-06T11:12:38.674Z,96406.22
2023-03-06T11:15:14.275Z,96413.03
2023-03-06T11:17:59.249Z,96404.44
2023-03-06T11:20:51.895Z,96405.25
2023-03-06T11:23:40.789Z,96405.06
2023-03-06T11:26:16.173Z,96401.09
2023-03-06T11:29:09.224Z,96401.31
2023-03-06T11:31:41.908Z,96392.56
2023-03-06T11:34:11.460Z,96391.03
2023-03-06T11:37:10.596Z,96384.63
2023-03-06T11:39:37.189Z,96379.72
2023-03-06T11:42:23.341Z,96386.16
2023-03-06T11:45:22.278Z,96371.06
2023-03-06T11:48:01.862Z,96381.81
2023-03-06T11:50:38.643Z,96370.69
2023-03-06T11:53:40.875Z,96373.28
2023-03-06T11:56:10.324Z,96366.31
2023-03-06T11:59:18.000Z,96357.06
2023-03-06T12:02:18.907Z,96358.84
2023-03-06T12:04:54.443Z,96351.59
2023-03-06T12:07:33.868Z,96295.19
2023-03-06T12:10:24.255Z,96345.56
2023-03-06T12:13:19.692Z,96279.91
2023-03-06T12:16:07.428Z,96341.53
2023-03-06T12:18:54.972Z,96331.75
2023-03-06T12:21:27.647Z,96344.59
2023-03-06T12:24:09.904Z,96341.03
2023-03-06T12:27:02.429Z,96326.56
2023-03-06T12:29:41.150Z,96323.28
2023-03-06T12:32:38.140Z,96319.59
2023-03-06T12:35:25.900Z,96326.16
2023-03-06T12:38:04.096Z,96290.25
2023-03-06T12:41:02.547Z,96310.19
2023-03-06T12:43:31.874Z,96304.66
2023-03-06T12:46:08.461Z,96182.19
2023-03-06T12:48:37.311Z,96288.56
2023-03-06T12:51:08.022Z,96293.66
2023-03-06T12:53:36.159Z,96316.53
2023-03-06T12:56:03.947Z,96232.56
2023-03-06T12:58:30.554Z,96298.16
2023-03-06T13:01:04.228Z,96284.56
2023-03-06T13:03:44.914Z,96288.69
2023-03-06T13:06:20.300Z,96287.56
2023-03-06T13:09:03.313Z,96208.41
2023-03-06T13:12:09.064Z,96283.19
2023-03-06T13:14:42.259Z,96281.00
2023-03-06T13:17:24.112Z,96284.16
2023-03-06T13:20:26.826Z,96278.91
2023-03-06T13:22:53.487Z,96276.94
2023-03-06T13:25:20.078Z,96278.66
2023-03-06T13:28:00.132Z,96258.63
2023-03-06T13:30:38.842Z,96277.16
2023-03-06T13:33:25.852Z,96272.50
2023-03-06T13:36:28.742Z,96273.22
2023-03-06T13:38:56.539Z,96265.56
2023-03-06T13:41:23.210Z,96275.84
2023-03-06T13:43:57.028Z,96264.72
2023-03-06T13:46:26.804Z,96272.81
2023-03-06T13:49:08.822Z,96280.75
2023-03-06T13:51:38.996Z,96235.94
2023-03-06T13:54:20.861Z,96275.69
2023-03-06T13:57:08.503Z,96265.53
2023-03-06T14:00:09.001Z,96271.56
2023-03-06T14:03:01.997Z,96269.59
2023-03-06T14:05:55.115Z,96254.69
2023-03-06T14:08:24.480Z,96271.16
2023-03-06T14:11:17.260Z,96262.41
2023-03-06T14:13:50.663Z,96249.69
2023-03-06T14:16:23.983Z,96276.81
2023-03-06T14:18:57.456Z,96260.06
2023-03-06T14:21:32.638Z,96269.69
2023-03-06T14:24:04.604Z,96254.63
2023-03-06T14:26:41.369Z,96251.91
2023-03-06T14:29:23.050Z,96246.88
2023-03-06T14:31:51.928Z,96218.81
2023-03-06T14:34:22.483Z,96250.75
2023-03-06T14:36:51.463Z,96247.16
2023-03-06T14:39:21.209Z,96258.28
2023-03-06T14:41:48.014Z,96250.75
2023-03-06T14:44:21.581Z,96244.41
2023-03-06T14:46:51.231Z,96248.81
2023-03-06T14:49:20.251Z,96255.28
2023-03-06T14:51:52.340Z,96252.88
2023-03-06T14:54:26.011Z,96251.09
2023-03-06T14:57:00.022Z,96247.09
2023-03-06T14:59:30.559Z,96250.25
2023-03-06T15:02:00.543Z,96255.84
2023-03-06T15:04:46.545Z,96262.94
2023-03-06T15:07:21.910Z,96199.75
2023-03-06T15:09:53.931Z,96253.41
2023-03-06T15:12:20.775Z,96251.09
2023-03-06T15:15:04.243Z,96261.41
2023-03-06T15:17:45.569Z,96259.16
2023-03-06T15:20:52.806Z,96260.31
2023-03-06T15:23:21.185Z,96266.16
2023-03-06T15:25:57.546Z,96266.00
2023-03-06T15:28:30.475Z,96251.72
2023-03-06T15:31:05.338Z,96266.13
2023-03-06T15:33:32.194Z,96263.75
2023-03-06T15:36:04.667Z,96258.16
2023-03-06T15:38:45.634Z,96270.03
2023-03-06T15:41:30.482Z,96263.72
2023-03-06T15:43:59.241Z,96189.41
2023-03-06T15:46:25.920Z,96265.41
2023-03-06T15:49:00.638Z,96270.53
2023-03-06T15:51:29.176Z,96275.75
2023-03-06T15:54:09.935Z,96277.78
2023-03-06T15:56:44.248Z,96276.56
2023-03-06T15:59:26.355Z,96235.41
2023-03-06T16:01:54.276Z,96285.38
2023-03-06T16:04:20.874Z,96293.78
2023-03-06T16:06:47.464Z,96286.69
2023-03-06T16:09:14.622Z,96298.94
2023-03-06T16:11:47.154Z,96299.78
2023-03-06T16:14:23.727Z,96304.59
2023-03-06T16:16:54.339Z,96303.00
2023-03-06T16:19:26.375Z,96306.97
2023-03-06T16:21:54.637Z,96291.09
2023-03-06T16:24:21.254Z,96269.66
2023-03-06T16:26:53.118Z,96312.88
2023-03-06T16:29:22.951Z,96283.91
2023-03-06T16:31:49.679Z,96282.72
2023-03-06T16:34:17.118Z,96328.69
2023-03-06T16:36:43.720Z,96325.13
2023-03-06T16:39:14.875Z,96331.47
2023-03-06T16:41:41.803Z,96335.41
2023-03-06T16:44:10.242Z,96337.75
2023-03-06T16:46:42.531Z,96332.13
2023-03-06T16:49:16.000Z,96339.31
2023-03-06T16:51:42.755Z,96336.88
2023-03-06T16:54:09.368Z,96330.41
2023-03-06T16:56:35.961Z,96331.59
2023-03-06T16:59:02.531Z,96339.50
2023-03-06T17:01:29.124Z,96341.53
2023-03-06T17:03:55.796Z,96239.97
2023-03-06T17:06:23.219Z,96342.28
2023-03-06T17:08:50.634Z,96346.63
2023-03-06T17:11:18.026Z,96278.69
2023-03-06T17:13:44.625Z,96344.22
2023-03-06T17:16:18.267Z,96331.03
2023-03-06T17:18:45.817Z,96350.84
2023-03-06T17:21:15.648Z,96349.97
2023-03-06T17:23:42.540Z,96259.88
2023-03-06T17:26:10.710Z,96352.88
2023-03-06T17:28:38.264Z,96362.44
2023-03-06T17:31:19.448Z,96357.59
2023-03-06T17:33:46.581Z,96367.34
2023-03-06T17:36:14.583Z,96360.59
2023-03-06T17:38:42.371Z,96360.50
2023-03-06T17:41:10.350Z,96360.44
2023-03-06T17:43:38.666Z,96365.09
2023-03-06T17:46:10.084Z,96359.13
2023-03-06T17:48:37.496Z,96300.63
2023-03-06T17:51:04.676Z,96369.81
2023-03-06T17:53:31.747Z,96370.44
2023-03-06T17:55:58.516Z,96303.84
2023-03-06T17:58:26.650Z,96302.59
2023-03-06T18:00:53.211Z,96373.63
2023-03-06T18:03:19.838Z,96300.03
2023-03-06T18:05:46.380Z,96354.56
2023-03-06T18:08:13.163Z,96335.09
2023-03-06T18:10:41.328Z,96251.09
2023-03-06T18:13:10.714Z,96297.91
2023-03-06T18:15:41.392Z,96379.63
2023-03-06T18:18:08.961Z,96379.53
2023-03-06T18:20:47.202Z,96379.53
2023-03-06T18:23:14.264Z,96375.38
2023-03-06T18:25:41.468Z,96394.72
2023-03-06T18:28:08.227Z,96299.56
2023-03-06T18:30:36.056Z,96351.16
2023-03-06T18:33:02.864Z,96381.72
2023-03-06T18:35:29.449Z,96386.81
2023-03-06T18:37:56.117Z,96388.72
2023-03-06T18:40:24.761Z,96395.16
2023-03-06T18:42:54.826Z,96355.84
2023-03-06T18:45:21.498Z,96398.72
2023-03-06T18:47:48.101Z,96337.34
2023-03-06T18:50:17.562Z,96297.09
2023-03-06T18:52:44.754Z,96386.59
2023-03-06T18:55:12.334Z,96403.34
2023-03-06T18:57:39.275Z,96328.25
2023-03-06T19:00:07.463Z,96400.88
2023-03-06T19:02:34.111Z,96377.22
2023-03-06T19:05:00.785Z,96397.06
2023-03-06T19:07:27.509Z,96382.91
2023-03-06T19:09:54.153Z,96403.75
2023-03-06T19:12:21.118Z,96399.69
2023-03-06T19:14:47.773Z,96316.56
2023-03-06T19:17:14.335Z,96415.94
2023-03-06T19:19:41.036Z,96394.31
2023-03-06T19:22:07.656Z,96343.78
2023-03-06T19:24:34.359Z,96409.03
2023-03-06T19:27:00.972Z,96307.69
2023-03-06T19:29:28.489Z,96416.41
2023-03-06T19:31:57.300Z,96385.47
2023-03-06T19:34:25.190Z,96389.03
2023-03-06T19:36:51.806Z,96310.75
2023-03-06T19:39:18.576Z,96426.94
2023-03-06T19:41:47.006Z,96396.38
2023-03-06T19:44:14.634Z,96381.63
2023-03-06T19:46:41.337Z,96431.09
2023-03-06T19:49:12.152Z,96429.22
2023-03-06T19:51:40.116Z,96408.19
2023-03-06T19:54:06.973Z,96364.03
2023-03-06T19:56:33.798Z,96367.81
2023-03-06T19:59:00.634Z,96417.50
2023-03-06T20:01:28.301Z,96408.88
2023-03-06T20:03:59.645Z,96414.75
2023-03-06T20:06:29.887Z,95953.03
2023-03-06T20:08:56.572Z,96410.41
2023-03-06T20:11:26.103Z,96351.03
2023-03-06T20:13:53.733Z,96476.03
2023-03-06T20:16:20.358Z,96411.94
2023-03-06T20:18:47.061Z,96421.50
2023-03-06T20:21:14.745Z,96417.53
2023-03-06T20:23:41.940Z,96389.53
2023-03-06T20:26:12.014Z,96410.69
2023-03-06T20:28:40.141Z,96419.38
2023-03-06T20:31:13.335Z,96336.63
2023-03-06T20:33:40.156Z,96410.25
2023-03-06T20:36:17.022Z,96402.84
2023-03-06T20:38:43.930Z,96421.69
2023-03-06T20:41:18.668Z,96357.03
2023-03-06T20:43:45.311Z,96363.94
2023-03-06T20:46:12.869Z,96405.81
2023-03-06T20:48:40.707Z,96397.38
2023-03-06T20:51:14.916Z,96315.47
2023-03-06T20:53:41.618Z,96411.03
2023-03-06T20:56:12.800Z,96405.63
2023-03-06T20:58:39.440Z,96400.53
2023-03-06T21:01:05.989Z,96407.97
2023-03-06T21:03:32.638Z,96395.31
2023-03-06T21:05:59.218Z,96408.16
2023-03-06T21:08:25.992Z,96400.63
2023-03-06T21:10:52.573Z,96407.66
2023-03-06T21:13:19.142Z,96394.44
2023-03-06T21:15:47.621Z,96399.50
2023-03-06T21:18:14.417Z,96356.53
2023-03-06T21:20:42.296Z,96394.44
2023-03-06T21:23:09.214Z,96395.28
2023-03-06T21:25:36.081Z,96398.38
2023-03-06T21:28:03.001Z,96418.50
2023-03-06T21:30:30.289Z,96397.34
2023-03-06T21:32:56.959Z,96392.34
2023-03-06T21:35:23.613Z,96391.88
2023-03-06T21:37:50.348Z,96368.78
2023-03-06T21:40:17.028Z,96394.63
2023-03-06T21:42:43.591Z,96359.28
2023-03-06T21:45:10.566Z,96397.09
2023-03-06T21:47:41.002Z,96376.81
2023-03-06T21:50:09.952Z,96382.94
2023-03-06T21:52:37.054Z,96378.31
2023-03-06T21:55:04.082Z,96384.75
2023-03-06T21:57:30.761Z,96378.50
2023-03-06T21:59:57.439Z,96364.44
2023-03-06T22:02:24.140Z,96327.06
2023-03-06T22:04:52.662Z,96382.13
2023-03-06T22:07:22.945Z,96389.81
2023-03-06T22:09:52.840Z,96367.63
2023-03-06T22:12:19.912Z,96337.75
2023-03-06T22:14:46.990Z,96386.38
2023-03-06T22:17:13.729Z,96383.63
2023-03-06T22:19:40.353Z,96374.25
2023-03-06T22:22:07.908Z,96366.03
2023-03-06T22:24:35.454Z,96328.66
2023-03-06T22:27:02.040Z,96352.53
2023-03-06T22:29:28.683Z,96373.03
2023-03-06T22:31:55.273Z,96368.06
2023-03-06T22:34:21.853Z,96363.19
2023-03-06T22:36:48.564Z,96363.09
2023-03-06T22:39:15.265Z,96365.03
2023-03-06T22:41:41.865Z,96367.53
2023-03-06T22:44:14.458Z,96366.72
2023-03-06T22:46:41.626Z,96367.44
2023-03-06T22:49:11.503Z,96366.81
2023-03-06T22:51:38.962Z,96354.06
2023-03-06T22:54:06.696Z,96378.59
2023-03-06T22:56:33.949Z,96370.28
2023-03-06T22:59:00.826Z,96346.78
2023-03-06T23:01:30.349Z,96356.53
2023-03-06T23:03:59.723Z,96363.47
2023-03-06T23:06:34.851Z,96332.44
2023-03-06T23:09:04.666Z,96367.19
2023-03-06T23:11:31.823Z,96239.16
2023-03-06T23:13:58.857Z,96371.84
2023-03-06T23:16:26.124Z,96336.34
2023-03-06T23:18:53.351Z,96393.16
2023-03-06T23:21:21.645Z,96384.94
2023-03-06T23:23:50.433Z,96371.97
2023-03-06T23:26:19.421Z,96328.06
2023-03-06T23:28:46.219Z,96387.44
2023-03-06T23:31:15.815Z,96378.25
2023-03-06T23:33:42.868Z,96388.31
2023-03-06T23:36:12.488Z,96396.66
2023-03-06T23:38:40.075Z,96382.69
2023-03-06T23:41:13.535Z,96382.56
2023-03-06T23:43:40.320Z,96389.13
2023-03-06T23:46:07.535Z,96346.59
2023-03-06T23:48:35.803Z,96394.78
2023-03-06T23:51:12.754Z,96430.41
2023-03-06T23:53:39.497Z,96345.97
2023-03-06T23:56:07.071Z,96385.41
2023-03-06T23:58:34.060Z,96360.84
